Time;durP1;ratioP1;P1;durP2;ratioP2;P2;SDS_P1;SDS_P2;PMS_P1;PMS_P2;Temp;Humidity;BMP_temperature;BMP_pressure;BME280_temperature;BME280_humidity;BME280_pressure;Samples;Min_cycle;Max_cycle;Signal;HPM_P1;HPM_P2
2022/10/29 00:02:33;;;;;;;19.02;13.62;;;24.40;87.60;;;;;;1891254;74;21787;-82
2022/10/29 00:05:04;;;;;;;22.07;12.75;;;24.40;87.60;;;;;;1910429;75;21127;-85
2022/10/29 00:07:35;;;;;;;19.10;12.37;;;24.40;87.60;;;;;;1910644;75;21188;-85
2022/10/29 00:10:07;;;;;;;17.80;12.53;;;24.40;88.00;;;;;;1914429;73;21135;-85
2022/10/29 00:12:38;;;;;;;19.42;13.25;;;24.40;88.10;;;;;;1916540;73;21160;-83
2022/10/29 00:15:10;;;;;;;19.45;13.05;;;24.40;88.30;;;;;;1915981;73;21560;-83
2022/10/29 00:17:41;;;;;;;19.95;13.98;;;24.40;88.70;;;;;;1914111;73;21180;-82
2022/10/29 00:20:12;;;;;;;23.70;14.60;;;24.40;88.60;;;;;;1915547;73;21609;-83
2022/10/29 00:22:43;;;;;;;23.32;13.78;;;24.40;88.60;;;;;;1917097;73;21266;-84
2022/10/29 00:25:14;;;;;;;19.73;13.18;;;24.50;88.80;;;;;;1915916;74;21115;-84
2022/10/29 00:27:45;;;;;;;21.37;12.30;;;24.50;88.80;;;;;;1913063;75;21156;-83
2022/10/29 00:30:16;;;;;;;17.70;13.40;;;24.50;88.40;;;;;;1919771;73;21650;-83
2022/10/29 00:32:47;;;;;;;22.10;13.10;;;24.50;88.30;;;;;;1917577;73;21190;-83
2022/10/29 00:35:22;;;;;;;21.57;13.18;;;24.50;88.40;;;;;;1912089;73;21099;-82
2022/10/29 00:37:53;;;;;;;23.98;14.45;;;24.50;88.30;;;;;;1915762;73;21643;-83
2022/10/29 00:40:24;;;;;;;18.15;13.75;;;24.60;88.30;;;;;;1916302;73;21484;-77
2022/10/29 00:42:58;;;;;;;24.43;13.60;;;24.60;88.30;;;;;;1899867;74;21254;-80
2022/10/29 00:45:29;;;;;;;19.67;12.95;;;24.60;88.30;;;;;;1891222;74;21131;-83
2022/10/29 00:48:02;;;;;;;19.77;12.90;;;24.60;88.30;;;;;;1896318;74;21600;-80
2022/10/29 00:50:33;;;;;;;25.20;14.63;;;24.70;88.20;;;;;;1896596;74;21199;-80
2022/10/29 00:53:04;;;;;;;19.70;12.88;;;24.70;88.20;;;;;;1894737;74;21145;-81
2022/10/29 00:55:35;;;;;;;23.70;14.43;;;24.80;88.40;;;;;;1898620;75;21231;-80
2022/10/29 00:58:10;;;;;;;18.98;13.28;;;24.90;87.90;;;;;;1899789;74;21121;-79
2022/10/29 01:00:44;;;;;;;18.85;13.50;;;25.00;87.90;;;;;;1899175;74;21092;-80
2022/10/29 01:03:17;;;;;;;22.17;14.53;;;25.00;87.70;;;;;;1899075;75;21530;-80
2022/10/29 01:05:49;;;;;;;22.70;14.95;;;25.20;87.70;;;;;;1905297;74;21144;-80
2022/10/29 01:08:22;;;;;;;19.73;14.30;;;25.30;87.50;;;;;;1895241;75;21152;-80
2022/10/29 01:11:14;;;;;;;21.05;15.05;;;25.40;87.10;;;;;;1894162;74;21176;-81
2022/10/29 01:13:54;;;;;;;20.90;15.15;;;25.40;86.80;;;;;;1902400;75;21242;-78
2022/10/29 01:16:28;;;;;;;22.22;15.05;;;25.50;86.80;;;;;;1901380;75;21078;-80
2022/10/29 01:19:21;;;;;;;21.00;14.70;;;25.60;86.60;;;;;;1896122;75;21947;-79
2022/10/29 01:22:11;;;;;;;19.40;14.68;;;25.70;86.10;;;;;;1894646;75;21556;-79
2022/10/29 01:24:47;;;;;;;22.55;14.00;;;25.70;86.10;;;;;;1892958;75;21083;-79
2022/10/29 01:27:40;;;;;;;20.97;13.65;;;25.80;85.90;;;;;;1901209;74;21129;-80
2022/10/29 01:30:14;;;;;;;22.95;15.40;;;25.90;86.20;;;;;;1895516;75;21072;-83
2022/10/29 01:33:03;;;;;;;18.45;12.25;;;26.00;84.90;;;;;;1894574;75;21628;-81
2022/10/29 01:35:46;;;;;;;22.98;13.10;;;26.00;83.40;;;;;;1898711;74;21084;-82
2022/10/29 01:38:39;;;;;;;18.17;13.32;;;26.10;83.50;;;;;;1900394;74;21144;-82
2022/10/29 01:41:20;;;;;;;19.02;12.45;;;26.20;83.40;;;;;;1893423;75;21197;-82
2022/10/29 01:43:57;;;;;;;16.97;11.25;;;26.20;83.60;;;;;;1914277;73;21642;-82
2022/10/29 01:46:39;;;;;;;16.05;11.53;;;26.30;82.20;;;;;;1913655;73;21104;-81
2022/10/29 01:49:13;;;;;;;19.98;12.63;;;26.40;82.10;;;;;;1911876;73;21073;-82
2022/10/29 01:51:45;;;;;;;21.30;11.65;;;26.50;81.70;;;;;;1910634;73;21070;-80
2022/10/29 01:54:16;;;;;;;14.85;10.38;;;26.60;81.00;;;;;;1926062;73;21080;-83
2022/10/29 01:56:55;;;;;;;16.77;10.70;;;26.60;80.40;;;;;;1916278;73;21287;-82
2022/10/29 01:59:28;;;;;;;15.08;11.53;;;26.70;79.60;;;;;;1906600;75;21232;-80
2022/10/29 02:02:09;;;;;;;15.32;10.98;;;26.70;79.30;;;;;;1918757;73;21151;-80
2022/10/29 02:04:54;;;;;;;17.70;10.88;;;26.80;78.80;;;;;;1904912;73;21166;-82
2022/10/29 02:07:36;;;;;;;16.17;11.30;;;26.80;79.40;;;;;;1915880;74;21136;-82
2022/10/29 02:10:12;;;;;;;15.05;10.85;;;26.90;79.30;;;;;;1898624;74;21163;-81
2022/10/29 02:12:52;;;;;;;16.02;11.08;;;26.90;79.00;;;;;;1864087;75;21144;-81
2022/10/29 02:15:25;;;;;;;15.88;10.55;;;26.90;79.40;;;;;;1889208;74;21213;-80
2022/10/29 02:18:04;;;;;;;15.58;10.80;;;27.00;79.50;;;;;;1855254;75;21161;-82
2022/10/29 02:20:35;;;;;;;18.07;10.25;;;27.10;78.90;;;;;;1891907;74;21666;-79
2022/10/29 02:23:06;;;;;;;17.40;11.10;;;27.20;78.10;;;;;;1867427;75;21183;-80
2022/10/29 02:25:39;;;;;;;15.13;10.45;;;27.30;78.10;;;;;;1897943;74;21133;-79
2022/10/29 02:28:09;;;;;;;18.65;11.12;;;27.40;77.90;;;;;;1855627;76;21156;-80
2022/10/29 02:30:40;;;;;;;11.43;9.88;;;27.40;78.10;;;;;;1887926;75;21228;-81
2022/10/29 02:33:11;;;;;;;15.78;9.95;;;27.50;78.20;;;;;;1867520;75;21181;-82
2022/10/29 02:35:42;;;;;;;14.53;10.05;;;27.50;77.40;;;;;;1895427;74;21233;-80
2022/10/29 02:38:13;;;;;;;14.78;9.58;;;27.60;76.90;;;;;;1857798;75;21170;-81
2022/10/29 02:40:44;;;;;;;12.82;9.75;;;27.70;76.60;;;;;;1888096;75;22194;-81
2022/10/29 02:43:14;;;;;;;15.28;9.90;;;27.80;76.20;;;;;;1867282;76;21152;-81
2022/10/29 02:45:57;;;;;;;16.48;10.10;;;27.80;75.80;;;;;;1898132;74;21591;-80
2022/10/29 02:48:21;;;;;;;17.25;10.28;;;27.80;76.40;;;;;;1862951;75;21183;-83
2022/10/29 02:50:52;;;;;;;15.08;10.65;;;27.90;76.80;;;;;;1860998;75;21220;-82
2022/10/29 02:53:23;;;;;;;18.70;10.32;;;28.00;75.40;;;;;;1861000;76;21150;-83
2022/10/29 02:55:54;;;;;;;16.62;10.20;;;28.10;74.70;;;;;;1888515;74;21071;-84
2022/10/29 02:58:24;;;;;;;21.62;10.90;;;28.20;74.50;;;;;;1859650;76;21209;-85
2022/10/29 03:00:55;;;;;;;19.37;10.82;;;28.20;75.00;;;;;;1896486;74;21222;-85
2022/10/29 03:03:26;;;;;;;17.02;10.15;;;28.20;74.60;;;;;;1866888;75;21134;-82
2022/10/29 03:05:57;;;;;;;13.45;9.88;;;28.30;74.80;;;;;;1893835;74;21193;-82
2022/10/29 03:08:28;;;;;;;15.50;10.32;;;28.40;74.40;;;;;;1865827;75;21163;-83
2022/10/29 03:10:59;;;;;;;14.25;9.45;;;28.50;74.70;;;;;;1855480;75;21584;-83
2022/10/29 03:13:30;;;;;;;16.73;10.08;;;28.60;73.80;;;;;;1892322;74;21135;-81
2022/10/29 03:16:01;;;;;;;14.60;10.53;;;28.70;73.40;;;;;;1856839;75;21169;-82
2022/10/29 03:18:33;;;;;;;14.65;10.20;;;28.80;73.60;;;;;;1852132;75;21139;-81
2022/10/29 03:21:04;;;;;;;15.70;10.20;;;28.90;72.70;;;;;;1901419;74;21108;-81
2022/10/29 03:23:34;;;;;;;11.80;9.43;;;28.90;73.10;;;;;;1865902;76;21108;-82
2022/10/29 03:26:05;;;;;;;13.90;9.95;;;29.00;72.70;;;;;;1883666;74;21158;-81
2022/10/29 03:28:36;;;;;;;12.30;10.60;;;29.10;71.90;;;;;;1848996;76;21168;-84
2022/10/29 03:31:07;;;;;;;11.73;9.38;;;29.20;71.60;;;;;;1858962;76;21124;-81
2022/10/29 03:33:38;;;;;;;12.55;9.55;;;29.20;71.30;;;;;;1856569;76;21112;-83
2022/10/29 03:36:09;;;;;;;13.75;10.65;;;29.30;71.70;;;;;;1894355;74;21284;-80
2022/10/29 03:38:40;;;;;;;20.27;10.03;;;29.30;71.10;;;;;;1863416;76;21041;-82
2022/10/29 03:41:12;;;;;;;15.55;10.10;;;29.40;71.40;;;;;;1895023;75;21193;-85
2022/10/29 03:43:43;;;;;;;13.55;9.75;;;29.50;70.60;;;;;;1868104;76;21638;-82
2022/10/29 03:46:14;;;;;;;15.65;10.65;;;29.50;70.10;;;;;;1812394;77;21184;-83
2022/10/29 03:48:45;;;;;;;13.28;9.35;;;29.60;70.40;;;;;;1880100;73;21187;-84
2022/10/29 03:51:16;;;;;;;15.25;9.95;;;29.70;69.40;;;;;;1879475;74;21151;-82
2022/10/29 03:53:47;;;;;;;14.87;9.68;;;29.70;70.00;;;;;;1876935;73;21531;-83
2022/10/29 03:56:19;;;;;;;16.17;11.73;;;29.70;70.60;;;;;;1880746;74;21056;-84
2022/10/29 03:58:50;;;;;;;15.28;9.95;;;29.80;70.70;;;;;;1881353;76;21906;-83
2022/10/29 04:01:21;;;;;;;16.35;9.93;;;29.90;70.60;;;;;;1885957;75;21160;-84
2022/10/29 04:03:52;;;;;;;16.12;9.88;;;29.90;71.10;;;;;;1890158;73;21170;-83
2022/10/29 04:06:23;;;;;;;14.75;9.60;;;30.10;70.00;;;;;;1872424;73;21158;-84
2022/10/29 04:08:54;;;;;;;14.15;9.63;;;30.20;69.60;;;;;;1876270;76;21151;-82
2022/10/29 04:11:25;;;;;;;16.27;10.05;;;30.40;67.30;;;;;;1871963;73;21063;-82
2022/10/29 04:13:56;;;;;;;12.82;9.03;;;30.50;66.70;;;;;;1876026;73;21190;-81
2022/10/29 04:16:27;;;;;;;14.93;9.28;;;30.60;67.00;;;;;;1874873;75;21185;-85
2022/10/29 04:18:59;;;;;;;13.90;9.55;;;30.80;66.20;;;;;;1884742;76;21143;-83
2022/10/29 04:21:29;;;;;;;14.73;9.00;;;30.80;66.00;;;;;;1887858;74;21116;-83
2022/10/29 04:24:02;;;;;;;16.12;9.78;;;30.90;65.70;;;;;;1882664;76;21221;-82
2022/10/29 04:26:34;;;;;;;11.95;9.43;;;30.90;65.50;;;;;;1875490;75;21190;-82
2022/10/29 04:29:06;;;;;;;12.55;8.83;;;30.80;65.30;;;;;;1869891;75;21174;-84
2022/10/29 04:31:37;;;;;;;11.55;8.38;;;30.80;65.00;;;;;;1874797;75;21606;-82
2022/10/29 04:34:08;;;;;;;12.45;8.73;;;30.90;65.10;;;;;;1874386;75;21464;-87
2022/10/29 04:36:39;;;;;;;14.63;8.65;;;30.90;65.00;;;;;;1870300;73;21184;-83
2022/10/29 04:39:10;;;;;;;13.25;8.88;;;30.90;65.00;;;;;;1869614;76;21632;-85
2022/10/29 04:41:40;;;;;;;11.45;8.78;;;31.00;64.80;;;;;;1896306;73;21067;-85
2022/10/29 04:44:11;;;;;;;12.18;9.00;;;31.00;65.10;;;;;;1889168;75;21197;-82
2022/10/29 04:46:43;;;;;;;11.88;8.80;;;31.00;66.00;;;;;;1872827;75;21143;-82
2022/10/29 04:49:14;;;;;;;12.07;8.58;;;31.00;65.00;;;;;;1929169;73;21119;-82
2022/10/29 04:51:45;;;;;;;12.80;8.23;;;31.10;64.00;;;;;;1885069;75;21142;-84
2022/10/29 04:54:15;;;;;;;13.15;8.50;;;31.10;63.40;;;;;;1874475;75;21076;-84
2022/10/29 04:56:48;;;;;;;12.70;8.80;;;31.00;63.30;;;;;;1858188;76;21526;-83
2022/10/29 04:59:21;;;;;;;12.05;9.40;;;31.00;62.50;;;;;;1915456;73;21120;-83
2022/10/29 05:01:52;;;;;;;13.10;8.98;;;31.00;62.30;;;;;;1874847;75;21151;-81
2022/10/29 05:04:23;;;;;;;12.13;9.40;;;30.90;62.80;;;;;;1857724;75;21209;-80
2022/10/29 05:06:54;;;;;;;12.28;9.88;;;30.90;62.90;;;;;;1869579;76;21076;-80
2022/10/29 05:09:25;;;;;;;13.65;9.75;;;30.90;63.10;;;;;;1862711;76;21076;-82
2022/10/29 05:11:55;;;;;;;13.53;9.03;;;30.90;63.80;;;;;;1870892;75;21202;-81
2022/10/29 05:14:26;;;;;;;14.85;11.03;;;30.90;64.00;;;;;;1855856;76;21437;-82
2022/10/29 05:16:57;;;;;;;14.33;10.00;;;30.90;63.90;;;;;;1866081;75;21119;-82
2022/10/29 05:19:30;;;;;;;11.22;8.60;;;30.90;64.30;;;;;;1876389;75;21135;-81
2022/10/29 05:22:01;;;;;;;13.55;9.78;;;31.00;62.80;;;;;;1924248;73;21495;-81
2022/10/29 05:24:32;;;;;;;13.32;9.53;;;31.10;62.90;;;;;;1910877;73;21135;-82
2022/10/29 05:27:04;;;;;;;17.10;9.50;;;31.10;63.10;;;;;;1868083;75;21193;-80
2022/10/29 05:29:38;;;;;;;12.20;9.80;;;31.10;62.60;;;;;;1904320;73;21154;-82
2022/10/29 05:32:09;;;;;;;15.15;10.03;;;31.10;62.80;;;;;;1906749;74;21124;-82
2022/10/29 05:34:40;;;;;;;13.28;9.18;;;31.20;63.10;;;;;;1907037;74;21524;-82
2022/10/29 05:37:13;;;;;;;15.23;9.58;;;31.20;63.30;;;;;;1869948;76;21150;-79
2022/10/29 05:39:45;;;;;;;13.00;9.50;;;;;;;;;;1914056;73;21615;-82
2022/10/29 05:42:16;;;;;;;15.48;9.68;;;31.40;61.40;;;;;;1870438;76;21080;-81
2022/10/29 05:44:48;;;;;;;12.03;9.28;;;31.50;62.10;;;;;;1875348;75;21205;-81
2022/10/29 05:47:19;;;;;;;15.23;9.83;;;31.40;62.10;;;;;;1881423;75;21103;-81
2022/10/29 05:49:49;;;;;;;12.95;9.70;;;31.50;62.50;;;;;;1897817;74;21119;-81
2022/10/29 05:52:20;;;;;;;12.13;9.90;;;31.40;62.20;;;;;;1910974;75;21587;-82
2022/10/29 05:54:51;;;;;;;12.13;10.38;;;31.50;62.20;;;;;;1899744;75;21118;-83
2022/10/29 05:57:22;;;;;;;14.95;10.28;;;31.40;62.00;;;;;;1855596;75;21108;-84
2022/10/29 05:59:53;;;;;;;15.00;11.80;;;31.50;62.10;;;;;;1845851;75;21179;-81
2022/10/29 06:02:24;;;;;;;14.83;10.25;;;31.40;62.50;;;;;;1869174;76;21215;-80
2022/10/29 06:04:55;;;;;;;12.33;9.95;;;31.40;63.00;;;;;;1898605;75;21135;-82
2022/10/29 06:07:26;;;;;;;16.52;10.40;;;31.40;62.90;;;;;;1897007;75;21638;-79
2022/10/29 06:09:57;;;;;;;16.23;10.75;;;31.50;61.00;;;;;;1901825;75;21607;-79
2022/10/29 06:12:29;;;;;;;15.25;10.88;;;31.50;61.50;;;;;;1862688;77;21136;-83
2022/10/29 06:15:02;;;;;;;15.10;10.58;;;31.60;61.60;;;;;;1855686;76;21189;-79
2022/10/29 06:17:33;;;;;;;14.87;10.23;;;31.60;61.90;;;;;;1891754;75;21076;-80
2022/10/29 06:20:04;;;;;;;15.32;10.98;;;31.60;61.20;;;;;;1887174;75;21779;-78
2022/10/29 06:22:36;;;;;;;13.55;10.48;;;31.60;61.60;;;;;;1878848;75;21584;-78
2022/10/29 06:25:07;;;;;;;12.33;9.73;;;31.60;61.80;;;;;;1903177;75;21173;-79
2022/10/29 06:27:39;;;;;;;20.55;11.35;;;31.60;62.00;;;;;;1850819;77;21554;-79
2022/10/29 06:30:12;;;;;;;14.40;10.48;;;31.60;62.00;;;;;;1851275;77;21093;-79
2022/10/29 06:32:45;;;;;;;14.73;10.90;;;31.60;62.10;;;;;;1879450;76;21218;-80
2022/10/29 06:35:17;;;;;;;19.02;11.55;;;31.50;61.90;;;;;;1892841;75;21132;-80
2022/10/29 06:37:48;;;;;;;18.05;11.70;;;31.40;62.50;;;;;;1914405;75;21561;-79
2022/10/29 06:40:19;;;;;;;14.85;11.73;;;31.30;62.50;;;;;;1885212;75;21084;-79
2022/10/29 06:42:49;;;;;;;17.48;12.20;;;31.30;62.30;;;;;;1901749;75;21163;-80
2022/10/29 06:45:23;;;;;;;19.45;11.30;;;31.20;63.10;;;;;;1905909;74;21167;-80
2022/10/29 06:47:54;;;;;;;14.45;10.65;;;31.10;63.20;;;;;;1894571;74;21119;-79
2022/10/29 06:50:28;;;;;;;13.05;11.38;;;31.00;63.80;;;;;;1869528;76;21144;-79
2022/10/29 06:53:04;;;;;;;15.78;11.48;;;30.90;64.60;;;;;;1898266;74;21198;-80
2022/10/29 06:55:37;;;;;;;16.95;11.48;;;30.80;64.80;;;;;;1893292;74;21560;-79
2022/10/29 06:58:13;;;;;;;16.45;11.38;;;30.80;64.50;;;;;;1868108;76;21069;-80
2022/10/29 07:00:43;;;;;;;;;;;30.80;64.60;;;;;;1890842;75;21646;-80
2022/10/29 07:03:17;;;;;;;14.58;11.83;;;30.80;65.10;;;;;;1893097;75;20144;-78
2022/10/29 07:05:50;;;;;;;15.38;11.50;;;30.80;65.00;;;;;;1889262;74;21088;-79
2022/10/29 07:08:21;;;;;;;15.48;12.00;;;30.70;65.30;;;;;;1893759;74;21056;-80
2022/10/29 07:10:53;;;;;;;14.85;12.18;;;30.70;65.50;;;;;;1910686;74;21139;-79
2022/10/29 07:13:28;;;;;;;19.00;12.15;;;30.70;66.00;;;;;;1867499;75;21675;-79
2022/10/29 07:16:02;;;;;;;17.07;12.18;;;30.70;65.80;;;;;;1857679;76;21597;-79
2022/10/29 07:18:34;;;;;;;14.68;12.47;;;30.60;65.70;;;;;;1822126;77;21225;-78
2022/10/29 07:21:06;;;;;;;15.55;12.18;;;30.70;65.80;;;;;;1889539;74;21544;-78
2022/10/29 07:23:37;;;;;;;16.82;12.43;;;30.60;65.90;;;;;;1896080;74;21698;-80
2022/10/29 07:26:08;;;;;;;15.38;12.10;;;30.50;66.20;;;;;;1891971;75;21173;-80
2022/10/29 07:28:43;;;;;;;14.73;12.58;;;30.50;66.60;;;;;;1901499;74;21112;-78
2022/10/29 07:31:14;;;;;;;16.07;12.45;;;30.50;67.30;;;;;;1918837;74;21563;-79
2022/10/29 07:33:48;;;;;;;18.48;12.78;;;30.50;67.10;;;;;;1864597;77;21128;-79
2022/10/29 07:36:20;;;;;;;19.65;13.43;;;30.60;66.80;;;;;;1893289;74;21856;-77
2022/10/29 07:38:51;;;;;;;16.07;12.90;;;30.60;66.60;;;;;;1896570;74;21064;-79
2022/10/29 07:41:22;;;;;;;15.48;11.97;;;30.60;66.60;;;;;;1879758;75;21190;-78
2022/10/29 07:43:53;;;;;;;17.00;12.65;;;30.60;66.40;;;;;;1896213;74;21161;-79
2022/10/29 07:46:24;;;;;;;16.30;12.13;;;30.60;66.60;;;;;;1875037;76;21138;-78
2022/10/29 07:48:55;;;;;;;15.40;12.30;;;30.60;66.90;;;;;;1902476;74;21178;-78
2022/10/29 07:51:26;;;;;;;15.32;11.95;;;30.60;67.20;;;;;;1918979;74;21136;-78
2022/10/29 07:54:01;;;;;;;15.08;12.63;;;30.60;67.30;;;;;;1938811;73;21644;-79
2022/10/29 07:56:34;;;;;;;15.58;12.85;;;30.60;67.30;;;;;;1876361;76;21213;-79
2022/10/29 07:59:14;;;;;;;19.27;13.48;;;30.50;67.30;;;;;;1897235;74;21578;-79
2022/10/29 08:01:45;;;;;;;16.93;13.30;;;30.50;67.70;;;;;;1868786;76;21581;-78
2022/10/29 08:04:17;;;;;;;17.52;13.05;;;30.40;68.30;;;;;;1877435;75;21669;-78
2022/10/29 08:06:48;;;;;;;17.87;13.43;;;30.40;68.50;;;;;;1919348;73;21103;-78
2022/10/29 08:09:20;;;;;;;14.80;13.05;;;30.40;68.10;;;;;;1861304;76;21123;-78
2022/10/29 08:11:53;;;;;;;15.00;13.32;;;30.30;67.80;;;;;;1904421;73;21129;-78
2022/10/29 08:14:24;;;;;;;16.02;13.10;;;30.30;68.10;;;;;;1917170;74;21110;-79
2022/10/29 08:16:55;;;;;;;17.35;13.43;;;30.20;67.80;;;;;;1875855;76;21217;-80
2022/10/29 08:19:28;;;;;;;17.87;13.85;;;30.20;68.30;;;;;;1916874;74;21146;-78
2022/10/29 08:21:59;;;;;;;17.15;13.30;;;30.20;68.70;;;;;;1904461;74;21201;-78
2022/10/29 08:24:32;;;;;;;17.37;14.00;;;30.10;69.20;;;;;;1871538;76;21545;-80
2022/10/29 08:27:04;;;;;;;18.40;13.58;;;30.00;69.50;;;;;;1862807;76;21162;-80
2022/10/29 08:29:35;;;;;;;16.40;13.18;;;30.10;69.80;;;;;;1919913;73;21625;-80
2022/10/29 08:32:06;;;;;;;15.90;14.23;;;30.00;69.70;;;;;;1909711;74;21111;-82
2022/10/29 08:34:37;;;;;;;16.75;14.55;;;30.00;69.70;;;;;;1874876;76;21138;-80
2022/10/29 08:37:10;;;;;;;17.07;14.07;;;30.00;69.90;;;;;;1919813;73;21188;-80
2022/10/29 08:39:44;;;;;;;21.87;14.78;;;30.00;70.00;;;;;;1924253;73;21190;-79
2022/10/29 08:42:37;;;;;;;18.05;14.83;;;30.00;70.10;;;;;;1870304;76;21080;-80
2022/10/29 08:45:27;;;;;;;19.62;15.15;;;30.00;70.40;;;;;;1853642;76;21217;-79
2022/10/29 08:48:13;;;;;;;23.18;15.53;;;30.00;70.90;;;;;;1888065;74;21114;-80
2022/10/29 08:50:47;;;;;;;18.80;15.33;;;30.00;70.90;;;;;;1869409;75;21213;-77
2022/10/29 08:53:21;;;;;;;22.02;17.77;;;30.00;71.10;;;;;;1898262;74;21103;-79
2022/10/29 08:55:54;;;;;;;21.45;17.87;;;30.00;71.50;;;;;;1903434;73;21232;-79
2022/10/29 08:58:43;;;;;;;20.50;18.30;;;30.00;71.60;;;;;;1909998;74;21529;-79
2022/10/29 09:01:15;;;;;;;26.33;18.52;;;29.90;71.80;;;;;;1901789;74;21595;-79
2022/10/29 09:03:47;;;;;;;21.60;18.32;;;29.90;72.10;;;;;;1864838;76;21134;-77
2022/10/29 09:06:48;;;;;;;21.65;18.30;;;29.90;72.20;;;;;;1892548;74;21109;-79
2022/10/29 09:09:49;;;;;;;23.22;18.20;;;29.90;72.50;;;;;;1855822;76;21120;-78
2022/10/29 09:12:41;;;;;;;21.75;17.30;;;29.80;72.70;;;;;;1895870;75;21132;-79
2022/10/29 09:15:20;;;;;;;20.75;17.10;;;29.80;72.70;;;;;;1857293;75;21081;-78
2022/10/29 09:18:23;;;;;;;21.42;17.23;;;29.80;72.80;;;;;;1895771;74;21191;-78
2022/10/29 09:21:21;;;;;;;20.85;17.02;;;29.80;73.00;;;;;;1901807;75;21111;-80
2022/10/29 09:24:23;;;;;;;20.97;16.52;;;29.80;73.20;;;;;;1805818;77;21158;-81
2022/10/29 09:27:02;;;;;;;21.48;17.67;;;29.70;73.40;;;;;;1896809;74;21143;-82
2022/10/29 09:29:55;;;;;;;22.62;17.87;;;29.70;74.00;;;;;;1867894;75;21623;-78
2022/10/29 09:32:38;;;;;;;23.02;18.20;;;29.70;74.10;;;;;;1894770;74;21049;-82
2022/10/29 09:35:17;;;;;;;22.13;18.00;;;29.70;74.40;;;;;;1857629;76;21166;-79
2022/10/29 09:38:00;;;;;;;20.57;17.40;;;29.60;74.10;;;;;;1825562;77;21201;-78
2022/10/29 09:40:34;;;;;;;22.60;18.25;;;29.60;74.00;;;;;;1898536;74;21135;-78
2022/10/29 09:43:42;;;;;;;22.90;17.02;;;29.60;74.00;;;;;;1866613;76;21100;-78
2022/10/29 09:46:43;;;;;;;25.12;18.48;;;29.50;74.60;;;;;;1905678;74;21148;-79
2022/10/29 09:49:50;;;;;;;25.82;18.42;;;29.50;74.50;;;;;;1814165;75;21188;-78
2022/10/29 09:52:25;;;;;;;22.45;17.92;;;29.40;74.70;;;;;;1843469;75;21089;-81
2022/10/29 09:54:58;;;;;;;22.00;18.02;;;29.40;74.70;;;;;;1852321;75;21571;-78
2022/10/29 09:57:33;;;;;;;24.50;18.45;;;29.40;75.80;;;;;;1830192;77;21670;-79
2022/10/29 10:00:08;;;;;;;23.30;19.32;;;29.30;75.10;;;;;;1825486;76;21528;-78
2022/10/29 10:03:14;;;;;;;28.73;19.10;;;29.30;75.20;;;;;;1831206;76;21556;-82
2022/10/29 10:06:06;;;;;;;21.95;19.17;;;29.30;75.10;;;;;;1939712;74;21153;-79
2022/10/29 10:08:56;;;;;;;25.10;19.07;;;29.30;75.20;;;;;;1894367;74;21262;-79
2022/10/29 10:11:32;;;;;;;21.75;19.45;;;29.20;75.30;;;;;;1856133;76;21099;-80
2022/10/29 10:14:06;;;;;;;25.08;19.52;;;29.20;75.30;;;;;;1907154;74;21111;-79
2022/10/29 10:16:37;;;;;;;23.40;19.75;;;29.20;75.50;;;;;;1815784;79;21080;-80
2022/10/29 10:19:22;;;;;;;23.00;18.85;;;29.20;75.70;;;;;;1857667;74;21130;-80
2022/10/29 10:21:58;;;;;;;26.48;20.10;;;29.10;75.80;;;;;;1841652;75;21122;-79
2022/10/29 10:24:39;;;;;;;27.93;20.70;;;29.10;76.00;;;;;;1828120;77;21166;-79
2022/10/29 10:27:25;;;;;;;29.60;20.52;;;29.10;76.20;;;;;;1875030;74;21232;-79
2022/10/29 10:30:14;;;;;;;26.90;20.10;;;29.10;76.30;;;;;;1880074;74;21653;-81
2022/10/29 10:32:46;;;;;;;26.05;19.75;;;29.00;76.40;;;;;;1873237;76;21167;-81
2022/10/29 10:35:30;;;;;;;26.60;20.95;;;29.00;76.60;;;;;;1885037;76;21080;-80
2022/10/29 10:38:04;;;;;;;33.33;20.65;;;29.00;77.00;;;;;;1909937;74;21539;-80
2022/10/29 10:40:36;;;;;;;28.05;20.90;;;29.00;77.10;;;;;;1888237;74;21173;-79
2022/10/29 10:43:29;;;;;;;25.05;20.37;;;29.00;77.40;;;;;;1883934;74;21112;-81
2022/10/29 10:46:01;;;;;;;27.07;20.80;;;28.90;77.70;;;;;;1870792;75;21154;-80
2022/10/29 10:48:32;;;;;;;;;;;28.90;77.80;;;;;;1891592;74;21141;-81
2022/10/29 10:51:25;;;;;;;29.07;21.00;;;28.90;77.30;;;;;;1886647;74;20131;-80
2022/10/29 10:54:00;;;;;;;27.62;21.25;;;28.90;77.80;;;;;;1868091;75;21108;-79
2022/10/29 10:56:58;;;;;;;30.30;22.95;;;28.80;77.80;;;;;;1901617;73;21603;-78
2022/10/29 10:59:46;;;;;;;31.48;21.87;;;28.80;77.80;;;;;;1865589;75;21169;-80
2022/10/29 11:02:29;;;;;;;27.65;23.10;;;28.70;78.00;;;;;;1879577;76;21474;-80
2022/10/29 11:05:25;;;;;;;25.65;22.22;;;28.70;78.10;;;;;;1885262;76;21627;-79
2022/10/29 11:08:01;;;;;;;29.57;23.93;;;28.70;78.30;;;;;;1865810;75;21123;-80
2022/10/29 11:10:46;;;;;;;29.40;24.03;;;28.70;78.30;;;;;;1881559;76;21205;-82
2022/10/29 11:13:27;;;;;;;30.30;23.07;;;28.70;78.50;;;;;;1883040;74;21791;-80
2022/10/29 11:16:32;;;;;;;27.62;23.45;;;28.60;78.40;;;;;;1880805;76;21208;-80
2022/10/29 11:19:15;;;;;;;35.87;25.67;;;28.60;78.40;;;;;;1882427;75;21153;-80
2022/10/29 11:21:54;;;;;;;32.25;25.25;;;28.60;78.20;;;;;;1890600;74;21603;-80
2022/10/29 11:24:33;;;;;;;38.98;28.77;;;28.60;78.10;;;;;;1873228;74;21122;-80
2022/10/29 11:27:15;;;;;;;40.58;30.27;;;28.60;77.80;;;;;;1872539;74;21240;-81
2022/10/29 11:29:58;;;;;;;43.75;32.35;;;28.60;77.80;;;;;;1882672;76;21183;-79
2022/10/29 11:32:31;;;;;;;44.00;32.95;;;28.50;77.70;;;;;;1835947;75;21199;-79
2022/10/29 11:35:05;;;;;;;47.58;34.35;;;28.50;77.90;;;;;;1862570;76;21151;-78
2022/10/29 11:37:44;;;;;;;51.70;37.93;;;28.50;78.10;;;;;;1877063;75;21044;-80
2022/10/29 11:40:32;;;;;;;60.17;39.38;;;28.50;78.20;;;;;;1870716;74;21129;-79
2022/10/29 11:43:03;;;;;;;53.48;34.35;;;28.40;78.20;;;;;;1887189;74;21134;-80
2022/10/29 11:46:05;;;;;;;45.60;32.98;;;28.40;78.10;;;;;;1883298;72;21236;-81
2022/10/29 11:48:48;;;;;;;43.85;31.87;;;28.40;78.10;;;;;;1816976;75;21186;-79
2022/10/29 11:51:40;;;;;;;38.55;28.20;;;28.40;78.30;;;;;;1862421;76;21143;-82
2022/10/29 11:54:20;;;;;;;35.95;26.82;;;28.50;78.10;;;;;;1841492;77;21222;-81
2022/10/29 11:57:02;;;;;;;35.03;28.17;;;28.50;78.10;;;;;;1862460;76;21210;-81
2022/10/29 11:59:45;;;;;;;38.53;28.25;;;28.50;78.10;;;;;;1853393;76;21175;-82
2022/10/29 12:02:50;;;;;;;34.98;28.23;;;28.50;78.10;;;;;;1851031;76;21210;-81
2022/10/29 12:05:40;;;;;;;36.08;28.10;;;28.50;78.40;;;;;;1828903;77;21678;-83
2022/10/29 12:08:18;;;;;;;37.50;28.27;;;28.60;78.60;;;;;;1854645;75;21730;-83
2022/10/29 12:11:16;;;;;;;34.90;28.05;;;28.60;78.90;;;;;;1885292;75;21131;-79
2022/10/29 12:14:09;;;;;;;35.38;27.50;;;28.50;78.80;;;;;;1857048;76;21198;-81
2022/10/29 12:16:45;;;;;;;33.67;26.42;;;28.50;80.10;;;;;;1896444;74;21248;-82
2022/10/29 12:19:21;;;;;;;33.33;27.13;;;28.50;79.40;;;;;;1868165;76;21218;-80
2022/10/29 12:22:16;;;;;;;40.28;28.80;;;28.50;79.40;;;;;;1880844;75;21510;-81
2022/10/29 12:25:09;;;;;;;37.00;28.50;;;28.40;79.40;;;;;;1899171;75;21143;-81
2022/10/29 12:27:55;;;;;;;35.90;27.90;;;28.50;79.50;;;;;;1862022;76;21080;-81
2022/10/29 12:30:26;;;;;;;34.03;29.32;;;28.40;79.60;;;;;;1887265;74;21150;-81
2022/10/29 12:33:01;;;;;;;36.88;28.80;;;28.40;79.70;;;;;;1822473;78;21092;-80
2022/10/29 12:35:46;;;;;;;37.60;28.95;;;28.40;79.70;;;;;;1893053;75;21552;-81
2022/10/29 12:38:47;;;;;;;33.73;28.40;;;28.40;79.90;;;;;;1861108;76;21508;-82
2022/10/29 12:41:38;;;;;;;37.50;27.75;;;28.30;79.60;;;;;;1890688;75;21170;-81
2022/10/29 12:44:17;;;;;;;32.50;26.33;;;28.30;79.60;;;;;;1855396;75;21691;-82
2022/10/29 12:46:51;;;;;;;33.25;27.07;;;28.30;79.70;;;;;;1891926;75;21088;-81
2022/10/29 12:49:39;;;;;;;35.78;28.85;;;28.30;80.00;;;;;;1897298;75;21147;-81
2022/10/29 12:52:21;;;;;;;33.00;27.22;;;28.30;80.20;;;;;;1842225;76;21152;-80
2022/10/29 12:54:54;;;;;;;32.80;27.75;;;28.30;80.20;;;;;;1818195;77;21682;-80
2022/10/29 12:57:30;;;;;;;34.67;28.62;;;28.30;80.50;;;;;;1855191;75;21375;-81
2022/10/29 13:00:26;;;;;;;35.95;27.90;;;28.20;80.60;;;;;;1850712;75;21131;-80
2022/10/29 13:02:57;;;;;;;36.45;28.65;;;28.30;80.40;;;;;;1876135;75;21189;-80
2022/10/29 13:05:40;;;;;;;34.18;28.30;;;28.20;80.40;;;;;;1896174;74;21178;-81
2022/10/29 13:08:22;;;;;;;36.05;27.32;;;28.20;80.60;;;;;;1901438;75;21555;-80
2022/10/29 13:10:54;;;;;;;34.70;27.52;;;28.20;80.70;;;;;;1907620;73;21244;-82
2022/10/29 13:13:28;;;;;;;37.78;28.35;;;28.20;81.00;;;;;;1889807;75;21124;-81
2022/10/29 13:16:03;;;;;;;35.25;27.55;;;28.20;81.20;;;;;;1910412;73;21570;-81
2022/10/29 13:18:48;;;;;;;36.30;28.20;;;28.10;81.30;;;;;;1859476;77;21540;-82